Iva, South Carolina
Current Conditions -  °F | °C
As of 11:56 PM on Wednesday 26 Nov 2014 (Local Time) from KAND Reporting Station
Overcast Overcast  
Wind Chill: 41°   Ceiling: 8500
Heat Index: 44°   Visibility: 10mi
Dew Point: 31°   Wind: 6mph
Humidity: 60%   Direction: 200°SSW
Pressure: 30.04"   Gusts: NA
Location:  34.31°N, 82.66°W
Report Text: KAND 270456Z AUTO 20005KT 10SM OVC085 07/M01 A3004 RMK AO2 SLP173 T00671006 401440067
Loading
Personal Weather Stations






























Interactive Weather Map New forecast layout! Learn more

10-Day Weather Forecast

Advertisements
Track Severe Weather on mobile